sensor_id;sensor_type;location;lat;lon;timestamp;P1;durP1;ratioP1;P2;durP2;ratioP2
7495;SDS011;3789;47.064;15.482;2023-05-07T00:01:44;10.77;;;9.77;;
7495;SDS011;3789;47.064;15.482;2023-05-07T00:04:13;11.37;;;10.27;;
7495;SDS011;3789;47.064;15.482;2023-05-07T00:06:42;10.70;;;8.70;;
7495;SDS011;3789;47.064;15.482;2023-05-07T00:09:10;9.17;;;8.27;;
7495;SDS011;3789;47.064;15.482;2023-05-07T00:11:47;9.20;;;8.27;;
7495;SDS011;3789;47.064;15.482;2023-05-07T00:14:25;9.27;;;8.47;;
7495;SDS011;3789;47.064;15.482;2023-05-07T00:16:55;9.50;;;8.17;;
7495;SDS011;3789;47.064;15.482;2023-05-07T00:19:27;8.13;;;7.43;;
7495;SDS011;3789;47.064;15.482;2023-05-07T00:21:55;7.37;;;6.60;;
7495;SDS011;3789;47.064;15.482;2023-05-07T00:24:26;7.67;;;6.97;;
7495;SDS011;3789;47.064;15.482;2023-05-07T00:26:55;6.90;;;6.30;;
7495;SDS011;3789;47.064;15.482;2023-05-07T00:29:25;5.63;;;5.13;;
7495;SDS011;3789;47.064;15.482;2023-05-07T00:31:55;6.57;;;5.97;;
7495;SDS011;3789;47.064;15.482;2023-05-07T00:34:22;7.07;;;6.47;;
7495;SDS011;3789;47.064;15.482;2023-05-07T00:36:53;8.13;;;7.43;;
7495;SDS011;3789;47.064;15.482;2023-05-07T00:39:21;8.13;;;7.43;;
7495;SDS011;3789;47.064;15.482;2023-05-07T00:41:49;8.03;;;7.33;;
7495;SDS011;3789;47.064;15.482;2023-05-07T00:44:20;9.33;;;8.43;;
7495;SDS011;3789;47.064;15.482;2023-05-07T00:46:51;10.23;;;9.23;;
7495;SDS011;3789;47.064;15.482;2023-05-07T00:49:20;9.93;;;9.10;;
7495;SDS011;3789;47.064;15.482;2023-05-07T00:51:56;11.33;;;10.30;;
7495;SDS011;3789;47.064;15.482;2023-05-07T00:54:34;10.60;;;9.60;;
7495;SDS011;3789;47.064;15.482;2023-05-07T00:57:03;10.93;;;9.83;;
7495;SDS011;3789;47.064;15.482;2023-05-07T00:59:39;11.50;;;10.40;;
7495;SDS011;3789;47.064;15.482;2023-05-07T01:02:12;10.73;;;9.73;;
7495;SDS011;3789;47.064;15.482;2023-05-07T01:04:46;10.70;;;9.63;;
7495;SDS011;3789;47.064;15.482;2023-05-07T01:07:15;10.63;;;9.53;;
7495;SDS011;3789;47.064;15.482;2023-05-07T01:09:45;9.90;;;9.00;;
7495;SDS011;3789;47.064;15.482;2023-05-07T01:12:13;11.43;;;10.00;;
7495;SDS011;3789;47.064;15.482;2023-05-07T01:14:43;10.77;;;9.77;;
7495;SDS011;3789;47.064;15.482;2023-05-07T01:17:11;10.33;;;9.37;;
7495;SDS011;3789;47.064;15.482;2023-05-07T01:19:42;10.93;;;9.87;;
7495;SDS011;3789;47.064;15.482;2023-05-07T01:22:13;11.43;;;10.23;;
7495;SDS011;3789;47.064;15.482;2023-05-07T01:25:07;10.20;;;9.20;;
7495;SDS011;3789;47.064;15.482;2023-05-07T01:27:44;8.33;;;7.63;;
7495;SDS011;3789;47.064;15.482;2023-05-07T01:30:13;6.60;;;5.97;;
7495;SDS011;3789;47.064;15.482;2023-05-07T01:32:57;6.43;;;5.93;;
7495;SDS011;3789;47.064;15.482;2023-05-07T01:35:37;6.90;;;6.30;;
7495;SDS011;3789;47.064;15.482;2023-05-07T01:38:16;5.77;;;5.27;;
7495;SDS011;3789;47.064;15.482;2023-05-07T01:40:46;7.77;;;6.30;;
7495;SDS011;3789;47.064;15.482;2023-05-07T01:43:17;6.77;;;6.17;;
7495;SDS011;3789;47.064;15.482;2023-05-07T01:45:46;6.80;;;6.20;;
7495;SDS011;3789;47.064;15.482;2023-05-07T01:48:20;6.83;;;6.17;;
7495;SDS011;3789;47.064;15.482;2023-05-07T01:50:49;6.63;;;6.03;;
7495;SDS011;3789;47.064;15.482;2023-05-07T01:53:29;6.73;;;6.13;;
7495;SDS011;3789;47.064;15.482;2023-05-07T01:56:04;6.67;;;6.07;;
7495;SDS011;3789;47.064;15.482;2023-05-07T01:58:32;6.47;;;5.87;;
7495;SDS011;3789;47.064;15.482;2023-05-07T02:01:01;6.60;;;6.00;;
7495;SDS011;3789;47.064;15.482;2023-05-07T02:03:31;5.93;;;5.43;;
7495;SDS011;3789;47.064;15.482;2023-05-07T02:06:02;6.40;;;5.80;;
7495;SDS011;3789;47.064;15.482;2023-05-07T02:08:32;6.77;;;6.10;;
7495;SDS011;3789;47.064;15.482;2023-05-07T02:11:00;7.17;;;6.47;;
7495;SDS011;3789;47.064;15.482;2023-05-07T02:13:32;7.03;;;6.33;;
7495;SDS011;3789;47.064;15.482;2023-05-07T02:16:04;7.13;;;6.53;;
7495;SDS011;3789;47.064;15.482;2023-05-07T02:18:35;7.80;;;6.47;;
7495;SDS011;3789;47.064;15.482;2023-05-07T02:21:11;7.47;;;6.77;;
7495;SDS011;3789;47.064;15.482;2023-05-07T02:23:42;7.03;;;6.40;;
7495;SDS011;3789;47.064;15.482;2023-05-07T02:26:11;7.60;;;6.90;;
7495;SDS011;3789;47.064;15.482;2023-05-07T02:28:40;7.57;;;6.47;;
7495;SDS011;3789;47.064;15.482;2023-05-07T02:31:13;7.53;;;6.83;;
7495;SDS011;3789;47.064;15.482;2023-05-07T02:33:51;7.10;;;6.40;;
7495;SDS011;3789;47.064;15.482;2023-05-07T02:36:20;7.47;;;6.80;;
7495;SDS011;3789;47.064;15.482;2023-05-07T02:38:48;8.00;;;7.20;;
7495;SDS011;3789;47.064;15.482;2023-05-07T02:41:18;7.60;;;6.90;;
7495;SDS011;3789;47.064;15.482;2023-05-07T02:43:52;8.40;;;6.43;;
7495;SDS011;3789;47.064;15.482;2023-05-07T02:46:30;7.70;;;6.87;;
7495;SDS011;3789;47.064;15.482;2023-05-07T02:49:02;8.93;;;7.67;;
7495;SDS011;3789;47.064;15.482;2023-05-07T02:51:30;8.10;;;7.17;;
7495;SDS011;3789;47.064;15.482;2023-05-07T02:53:59;7.50;;;6.80;;
7495;SDS011;3789;47.064;15.482;2023-05-07T02:56:30;8.40;;;7.10;;
7495;SDS011;3789;47.064;15.482;2023-05-07T02:59:00;7.67;;;6.97;;
7495;SDS011;3789;47.064;15.482;2023-05-07T03:01:35;7.67;;;6.97;;
7495;SDS011;3789;47.064;15.482;2023-05-07T03:04:04;7.37;;;6.67;;
7495;SDS011;3789;47.064;15.482;2023-05-07T03:06:34;8.10;;;7.30;;
7495;SDS011;3789;47.064;15.482;2023-05-07T03:09:02;8.17;;;7.37;;
7495;SDS011;3789;47.064;15.482;2023-05-07T03:11:32;8.30;;;7.23;;
7495;SDS011;3789;47.064;15.482;2023-05-07T03:14:00;8.80;;;7.97;;
7495;SDS011;3789;47.064;15.482;2023-05-07T03:16:43;7.93;;;7.23;;
7495;SDS011;3789;47.064;15.482;2023-05-07T03:19:14;7.70;;;6.93;;
7495;SDS011;3789;47.064;15.482;2023-05-07T03:21:51;8.00;;;7.20;;
7495;SDS011;3789;47.064;15.482;2023-05-07T03:24:22;8.33;;;7.10;;
7495;SDS011;3789;47.064;15.482;2023-05-07T03:26:50;7.77;;;6.90;;
7495;SDS011;3789;47.064;15.482;2023-05-07T03:29:26;7.70;;;7.00;;
7495;SDS011;3789;47.064;15.482;2023-05-07T03:31:58;8.03;;;6.97;;
7495;SDS011;3789;47.064;15.482;2023-05-07T03:34:29;7.17;;;6.47;;
7495;SDS011;3789;47.064;15.482;2023-05-07T03:37:06;7.30;;;6.60;;
7495;SDS011;3789;47.064;15.482;2023-05-07T03:39:43;8.77;;;7.97;;
7495;SDS011;3789;47.064;15.482;2023-05-07T03:42:19;7.30;;;6.60;;
7495;SDS011;3789;47.064;15.482;2023-05-07T03:44:55;7.57;;;6.87;;
7495;SDS011;3789;47.064;15.482;2023-05-07T03:47:25;7.93;;;7.23;;
7495;SDS011;3789;47.064;15.482;2023-05-07T03:49:54;8.83;;;7.60;;
7495;SDS011;3789;47.064;15.482;2023-05-07T03:52:22;8.90;;;7.77;;
7495;SDS011;3789;47.064;15.482;2023-05-07T03:55:04;7.73;;;7.03;;
7495;SDS011;3789;47.064;15.482;2023-05-07T03:57:36;7.60;;;6.90;;
7495;SDS011;3789;47.064;15.482;2023-05-07T04:00:04;6.77;;;6.17;;
7495;SDS011;3789;47.064;15.482;2023-05-07T04:02:36;7.80;;;6.83;;
7495;SDS011;3789;47.064;15.482;2023-05-07T04:05:14;6.70;;;6.10;;
7495;SDS011;3789;47.064;15.482;2023-05-07T04:07:45;7.40;;;6.80;;
7495;SDS011;3789;47.064;15.482;2023-05-07T04:10:15;6.73;;;6.10;;
7495;SDS011;3789;47.064;15.482;2023-05-07T04:12:47;7.00;;;6.40;;
7495;SDS011;3789;47.064;15.482;2023-05-07T04:15:19;7.70;;;6.90;;
7495;SDS011;3789;47.064;15.482;2023-05-07T04:17:57;8.17;;;7.13;;
7495;SDS011;3789;47.064;15.482;2023-05-07T04:20:25;7.07;;;6.40;;
7495;SDS011;3789;47.064;15.482;2023-05-07T04:23:03;7.30;;;6.60;;
7495;SDS011;3789;47.064;15.482;2023-05-07T04:25:31;7.43;;;6.73;;
7495;SDS011;3789;47.064;15.482;2023-05-07T04:28:09;7.80;;;7.10;;
7495;SDS011;3789;47.064;15.482;2023-05-07T04:30:44;7.90;;;7.20;;
7495;SDS011;3789;47.064;15.482;2023-05-07T04:33:14;7.40;;;6.70;;
7495;SDS011;3789;47.064;15.482;2023-05-07T04:35:53;7.27;;;6.63;;
7495;SDS011;3789;47.064;15.482;2023-05-07T04:38:24;7.17;;;6.57;;
7495;SDS011;3789;47.064;15.482;2023-05-07T04:40:55;7.20;;;6.50;;
7495;SDS011;3789;47.064;15.482;2023-05-07T04:43:24;6.87;;;6.27;;
7495;SDS011;3789;47.064;15.482;2023-05-07T04:45:53;7.07;;;6.37;;
7495;SDS011;3789;47.064;15.482;2023-05-07T04:48:23;7.43;;;6.73;;
7495;SDS011;3789;47.064;15.482;2023-05-07T04:50:54;7.47;;;6.73;;
7495;SDS011;3789;47.064;15.482;2023-05-07T04:53:32;7.00;;;6.30;;
7495;SDS011;3789;47.064;15.482;2023-05-07T04:56:08;7.10;;;6.20;;
7495;SDS011;3789;47.064;15.482;2023-05-07T04:58:36;6.47;;;5.87;;
7495;SDS011;3789;47.064;15.482;2023-05-07T05:01:07;6.80;;;6.20;;
7495;SDS011;3789;47.064;15.482;2023-05-07T05:03:39;6.30;;;5.70;;
7495;SDS011;3789;47.064;15.482;2023-05-07T05:06:09;5.63;;;5.13;;
7495;SDS011;3789;47.064;15.482;2023-05-07T05:08:41;5.70;;;5.20;;
7495;SDS011;3789;47.064;15.482;2023-05-07T05:11:08;4.97;;;4.57;;
7495;SDS011;3789;47.064;15.482;2023-05-07T05:13:36;4.97;;;4.20;;
7495;SDS011;3789;47.064;15.482;2023-05-07T05:16:05;6.03;;;3.93;;
7495;SDS011;3789;47.064;15.482;2023-05-07T05:18:35;4.30;;;3.90;;
7495;SDS011;3789;47.064;15.482;2023-05-07T05:21:09;4.40;;;4.00;;
7495;SDS011;3789;47.064;15.482;2023-05-07T05:23:46;4.10;;;3.63;;
7495;SDS011;3789;47.064;15.482;2023-05-07T05:26:17;3.63;;;3.33;;
7495;SDS011;3789;47.064;15.482;2023-05-07T05:28:46;4.47;;;4.07;;
7495;SDS011;3789;47.064;15.482;2023-05-07T05:31:15;4.50;;;4.20;;
7495;SDS011;3789;47.064;15.482;2023-05-07T05:33:53;4.60;;;4.20;;
7495;SDS011;3789;47.064;15.482;2023-05-07T05:36:22;4.50;;;4.10;;
7495;SDS011;3789;47.064;15.482;2023-05-07T05:38:51;4.90;;;4.40;;
7495;SDS011;3789;47.064;15.482;2023-05-07T05:41:19;4.27;;;3.87;;
7495;SDS011;3789;47.064;15.482;2023-05-07T05:43:56;4.67;;;4.27;;
7495;SDS011;3789;47.064;15.482;2023-05-07T05:46:25;5.93;;;4.50;;
7495;SDS011;3789;47.064;15.482;2023-05-07T05:48:55;4.80;;;4.40;;
7495;SDS011;3789;47.064;15.482;2023-05-07T05:51:24;4.40;;;4.07;;
7495;SDS011;3789;47.064;15.482;2023-05-07T05:54:01;4.33;;;4.00;;
7495;SDS011;3789;47.064;15.482;2023-05-07T05:56:32;4.53;;;4.13;;
7495;SDS011;3789;47.064;15.482;2023-05-07T05:59:03;4.90;;;4.43;;
7495;SDS011;3789;47.064;15.482;2023-05-07T06:01:33;5.37;;;4.87;;
7495;SDS011;3789;47.064;15.482;2023-05-07T06:04:08;5.43;;;4.93;;
7495;SDS011;3789;47.064;15.482;2023-05-07T06:06:39;7.07;;;5.50;;
7495;SDS011;3789;47.064;15.482;2023-05-07T06:09:09;5.53;;;5.07;;
7495;SDS011;3789;47.064;15.482;2023-05-07T06:11:40;5.63;;;5.10;;
7495;SDS011;3789;47.064;15.482;2023-05-07T06:14:10;4.97;;;4.53;;
7495;SDS011;3789;47.064;15.482;2023-05-07T06:16:39;7.07;;;5.00;;
7495;SDS011;3789;47.064;15.482;2023-05-07T06:19:21;5.67;;;4.40;;
7495;SDS011;3789;47.064;15.482;2023-05-07T06:22:01;4.80;;;4.40;;
7495;SDS011;3789;47.064;15.482;2023-05-07T06:24:32;4.30;;;3.90;;
7495;SDS011;3789;47.064;15.482;2023-05-07T06:27:01;4.57;;;4.17;;
7495;SDS011;3789;47.064;15.482;2023-05-07T06:29:34;4.00;;;3.70;;
7495;SDS011;3789;47.064;15.482;2023-05-07T06:32:10;5.17;;;4.03;;
7495;SDS011;3789;47.064;15.482;2023-05-07T06:34:49;4.73;;;3.77;;
7495;SDS011;3789;47.064;15.482;2023-05-07T06:37:21;4.67;;;4.27;;
7495;SDS011;3789;47.064;15.482;2023-05-07T06:39:52;4.60;;;4.20;;
7495;SDS011;3789;47.064;15.482;2023-05-07T06:42:26;4.47;;;3.87;;
7495;SDS011;3789;47.064;15.482;2023-05-07T06:45:05;3.90;;;3.60;;
7495;SDS011;3789;47.064;15.482;2023-05-07T06:47:39;4.30;;;4.00;;
7495;SDS011;3789;47.064;15.482;2023-05-07T06:50:09;4.30;;;4.00;;
7495;SDS011;3789;47.064;15.482;2023-05-07T06:52:48;3.70;;;3.40;;
7495;SDS011;3789;47.064;15.482;2023-05-07T06:55:24;3.80;;;3.50;;
7495;SDS011;3789;47.064;15.482;2023-05-07T06:57:54;3.93;;;3.63;;
7495;SDS011;3789;47.064;15.482;2023-05-07T07:00:27;4.33;;;3.93;;
7495;SDS011;3789;47.064;15.482;2023-05-07T07:03:04;4.20;;;3.90;;
7495;SDS011;3789;47.064;15.482;2023-05-07T07:05:36;4.20;;;3.90;;
7495;SDS011;3789;47.064;15.482;2023-05-07T07:08:06;4.23;;;3.83;;
7495;SDS011;3789;47.064;15.482;2023-05-07T07:10:34;5.27;;;4.77;;
7495;SDS011;3789;47.064;15.482;2023-05-07T07:13:06;4.78;;;4.38;;
7495;SDS011;3789;47.064;15.482;2023-05-07T07:15:46;4.80;;;4.30;;
7495;SDS011;3789;47.064;15.482;2023-05-07T07:18:14;5.18;;;4.60;;
7495;SDS011;3789;47.064;15.482;2023-05-07T07:20:41;5.13;;;4.18;;
7495;SDS011;3789;47.064;15.482;2023-05-07T07:23:19;4.75;;;4.35;;
7495;SDS011;3789;47.064;15.482;2023-05-07T07:25:48;7.75;;;4.55;;
7495;SDS011;3789;47.064;15.482;2023-05-07T07:28:17;4.90;;;4.37;;
7495;SDS011;3789;47.064;15.482;2023-05-07T07:30:50;5.07;;;4.67;;
7495;SDS011;3789;47.064;15.482;2023-05-07T07:33:26;4.70;;;4.30;;
7495;SDS011;3789;47.064;15.482;2023-05-07T07:35:55;5.22;;;4.82;;
7495;SDS011;3789;47.064;15.482;2023-05-07T07:38:33;5.43;;;4.93;;
7495;SDS011;3789;47.064;15.482;2023-05-07T07:41:02;5.28;;;4.78;;
7495;SDS011;3789;47.064;15.482;2023-05-07T07:43:32;5.45;;;4.90;;
7495;SDS011;3789;47.064;15.482;2023-05-07T07:46:02;5.65;;;5.15;;
7495;SDS011;3789;47.064;15.482;2023-05-07T07:48:31;5.45;;;4.95;;
7495;SDS011;3789;47.064;15.482;2023-05-07T07:51:00;5.95;;;5.45;;
7495;SDS011;3789;47.064;15.482;2023-05-07T07:53:29;4.88;;;4.47;;
7495;SDS011;3789;47.064;15.482;2023-05-07T07:55:58;5.95;;;5.45;;
7495;SDS011;3789;47.064;15.482;2023-05-07T07:58:35;5.80;;;5.25;;
7495;SDS011;3789;47.064;15.482;2023-05-07T08:01:04;6.50;;;5.90;;
7495;SDS011;3789;47.064;15.482;2023-05-07T08:03:35;5.97;;;5.38;;
7495;SDS011;3789;47.064;15.482;2023-05-07T08:06:13;6.18;;;5.68;;
7495;SDS011;3789;47.064;15.482;2023-05-07T08:08:43;5.65;;;5.18;;
7495;SDS011;3789;47.064;15.482;2023-05-07T08:11:12;5.22;;;4.70;;
7495;SDS011;3789;47.064;15.482;2023-05-07T08:13:40;4.90;;;4.45;;
7495;SDS011;3789;47.064;15.482;2023-05-07T08:16:09;5.50;;;5.00;;
7495;SDS011;3789;47.064;15.482;2023-05-07T08:18:43;4.90;;;4.50;;
7495;SDS011;3789;47.064;15.482;2023-05-07T08:21:13;5.22;;;4.60;;
7495;SDS011;3789;47.064;15.482;2023-05-07T08:23:40;5.32;;;4.82;;
7495;SDS011;3789;47.064;15.482;2023-05-07T08:26:12;4.70;;;4.35;;
7495;SDS011;3789;47.064;15.482;2023-05-07T08:28:42;5.22;;;4.80;;
7495;SDS011;3789;47.064;15.482;2023-05-07T08:31:12;5.60;;;5.10;;
7495;SDS011;3789;47.064;15.482;2023-05-07T08:33:44;5.50;;;5.07;;
7495;SDS011;3789;47.064;15.482;2023-05-07T08:36:13;5.55;;;5.05;;
7495;SDS011;3789;47.064;15.482;2023-05-07T08:38:53;5.30;;;4.80;;
7495;SDS011;3789;47.064;15.482;2023-05-07T08:41:23;6.20;;;4.97;;
7495;SDS011;3789;47.064;15.482;2023-05-07T08:43:54;5.28;;;4.88;;
7495;SDS011;3789;47.064;15.482;2023-05-07T08:46:33;5.22;;;4.72;;
7495;SDS011;3789;47.064;15.482;2023-05-07T08:49:03;4.97;;;4.40;;
7495;SDS011;3789;47.064;15.482;2023-05-07T08:51:39;5.38;;;4.97;;
7495;SDS011;3789;47.064;15.482;2023-05-07T08:54:24;4.90;;;4.50;;
7495;SDS011;3789;47.064;15.482;2023-05-07T08:56:54;4.80;;;4.40;;
7495;SDS011;3789;47.064;15.482;2023-05-07T08:59:25;5.10;;;4.60;;
7495;SDS011;3789;47.064;15.482;2023-05-07T09:01:55;5.13;;;4.72;;
7495;SDS011;3789;47.064;15.482;2023-05-07T09:04:26;5.28;;;4.88;;
7495;SDS011;3789;47.064;15.482;2023-05-07T09:06:59;5.90;;;4.80;;
7495;SDS011;3789;47.064;15.482;2023-05-07T09:09:33;5.50;;;5.00;;
7495;SDS011;3789;47.064;15.482;2023-05-07T09:12:01;5.57;;;4.57;;
7495;SDS011;3789;47.064;15.482;2023-05-07T09:14:31;4.63;;;4.20;;
7495;SDS011;3789;47.064;15.482;2023-05-07T09:17:01;4.95;;;4.25;;
7495;SDS011;3789;47.064;15.482;2023-05-07T09:19:37;5.97;;;5.47;;
7495;SDS011;3789;47.064;15.482;2023-05-07T09:22:17;4.88;;;4.47;;
7495;SDS011;3789;47.064;15.482;2023-05-07T09:24:51;5.28;;;4.28;;
7495;SDS011;3789;47.064;15.482;2023-05-07T09:27:21;4.53;;;4.13;;
7495;SDS011;3789;47.064;15.482;2023-05-07T09:30:02;5.40;;;4.00;;
7495;SDS011;3789;47.064;15.482;2023-05-07T09:32:38;4.68;;;4.25;;
7495;SDS011;3789;47.064;15.482;2023-05-07T09:35:05;5.03;;;4.53;;
7495;SDS011;3789;47.064;15.482;2023-05-07T09:37:42;4.20;;;3.80;;
7495;SDS011;3789;47.064;15.482;2023-05-07T09:40:25;4.57;;;4.15;;
7495;SDS011;3789;47.064;15.482;2023-05-07T09:42:56;5.03;;;4.63;;
7495;SDS011;3789;47.064;15.482;2023-05-07T09:45:40;5.00;;;4.10;;
7495;SDS011;3789;47.064;15.482;2023-05-07T09:48:12;4.72;;;4.28;;
7495;SDS011;3789;47.064;15.482;2023-05-07T09:50:48;5.20;;;4.80;;
7495;SDS011;3789;47.064;15.482;2023-05-07T09:53:19;4.85;;;4.43;;
7495;SDS011;3789;47.064;15.482;2023-05-07T09:55:49;4.85;;;4.20;;
7495;SDS011;3789;47.064;15.482;2023-05-07T09:58:18;4.25;;;3.95;;
7495;SDS011;3789;47.064;15.482;2023-05-07T10:00:50;4.97;;;4.00;;
7495;SDS011;3789;47.064;15.482;2023-05-07T10:03:21;4.80;;;4.40;;
7495;SDS011;3789;47.064;15.482;2023-05-07T10:06:10;6.82;;;4.00;;
7495;SDS011;3789;47.064;15.482;2023-05-07T10:08:41;4.57;;;4.07;;
7495;SDS011;3789;47.064;15.482;2023-05-07T10:11:11;4.57;;;4.18;;
7495;SDS011;3789;47.064;15.482;2023-05-07T10:13:43;4.32;;;4.03;;
7495;SDS011;3789;47.064;15.482;2023-05-07T10:16:14;4.72;;;4.35;;
7495;SDS011;3789;47.064;15.482;2023-05-07T10:18:43;4.32;;;4.03;;
7495;SDS011;3789;47.064;15.482;2023-05-07T10:21:20;5.10;;;4.20;;
7495;SDS011;3789;47.064;15.482;2023-05-07T10:23:59;3.95;;;3.65;;
7495;SDS011;3789;47.064;15.482;2023-05-07T10:26:47;4.00;;;3.70;;
7495;SDS011;3789;47.064;15.482;2023-05-07T10:32:47;4.30;;;3.90;;
7495;SDS011;3789;47.064;15.482;2023-05-07T10:35:27;3.88;;;3.58;;
7495;SDS011;3789;47.064;15.482;2023-05-07T10:38:09;3.85;;;3.55;;
7495;SDS011;3789;47.064;15.482;2023-05-07T10:40:47;4.65;;;4.00;;
7495;SDS011;3789;47.064;15.482;2023-05-07T10:43:17;3.95;;;3.53;;
7495;SDS011;3789;47.064;15.482;2023-05-07T10:46:11;4.00;;;3.70;;
7495;SDS011;3789;47.064;15.482;2023-05-07T10:51:40;3.60;;;3.30;;
7495;SDS011;3789;47.064;15.482;2023-05-07T10:56:49;3.67;;;3.38;;
7495;SDS011;3789;47.064;15.482;2023-05-07T11:02:13;4.78;;;3.80;;
7495;SDS011;3789;47.064;15.482;2023-05-07T11:04:42;4.07;;;3.70;;
7495;SDS011;3789;47.064;15.482;2023-05-07T11:07:31;4.00;;;3.33;;
7495;SDS011;3789;47.064;15.482;2023-05-07T11:10:00;4.13;;;3.33;;
7495;SDS011;3789;47.064;15.482;2023-05-07T11:12:54;3.70;;;3.40;;
7495;SDS011;3789;47.064;15.482;2023-05-07T11:15:35;3.50;;;3.20;;
7495;SDS011;3789;47.064;15.482;2023-05-07T11:18:11;3.40;;;3.10;;
7495;SDS011;3789;47.064;15.482;2023-05-07T11:20:58;3.40;;;3.10;;
7495;SDS011;3789;47.064;15.482;2023-05-07T11:23:54;3.90;;;3.40;;
7495;SDS011;3789;47.064;15.482;2023-05-07T11:26:25;3.58;;;3.28;;
7495;SDS011;3789;47.064;15.482;2023-05-07T11:29:00;3.20;;;2.90;;
7495;SDS011;3789;47.064;15.482;2023-05-07T11:31:37;3.20;;;3.00;;
7495;SDS011;3789;47.064;15.482;2023-05-07T11:34:08;3.00;;;2.80;;
7495;SDS011;3789;47.064;15.482;2023-05-07T11:36:41;3.30;;;3.10;;
7495;SDS011;3789;47.064;15.482;2023-05-07T11:39:29;3.35;;;2.78;;
7495;SDS011;3789;47.064;15.482;2023-05-07T11:42:04;3.30;;;3.00;;
7495;SDS011;3789;47.064;15.482;2023-05-07T11:44:44;3.13;;;2.90;;
7495;SDS011;3789;47.064;15.482;2023-05-07T11:47:20;2.97;;;2.70;;
7495;SDS011;3789;47.064;15.482;2023-05-07T11:49:50;2.80;;;2.60;;
7495;SDS011;3789;47.064;15.482;2023-05-07T11:52:24;2.92;;;2.72;;
7495;SDS011;3789;47.064;15.482;2023-05-07T11:54:57;4.05;;;2.90;;
7495;SDS011;3789;47.064;15.482;2023-05-07T11:57:33;3.10;;;2.90;;
7495;SDS011;3789;47.064;15.482;2023-05-07T12:00:02;3.25;;;3.03;;
7495;SDS011;3789;47.064;15.482;2023-05-07T12:02:36;3.17;;;2.97;;
7495;SDS011;3789;47.064;15.482;2023-05-07T12:05:09;3.15;;;2.92;;
7495;SDS011;3789;47.064;15.482;2023-05-07T12:07:38;3.53;;;3.25;;
7495;SDS011;3789;47.064;15.482;2023-05-07T12:10:12;4.43;;;3.10;;
7495;SDS011;3789;47.064;15.482;2023-05-07T12:12:41;3.38;;;3.10;;
7495;SDS011;3789;47.064;15.482;2023-05-07T12:15:22;2.95;;;2.63;;
7495;SDS011;3789;47.064;15.482;2023-05-07T12:17:55;3.30;;;3.10;;
7495;SDS011;3789;47.064;15.482;2023-05-07T12:20:26;2.80;;;2.60;;
7495;SDS011;3789;47.064;15.482;2023-05-07T12:22:57;3.20;;;2.90;;
7495;SDS011;3789;47.064;15.482;2023-05-07T12:25:26;3.03;;;2.70;;
7495;SDS011;3789;47.064;15.482;2023-05-07T12:28:18;3.70;;;3.30;;
7495;SDS011;3789;47.064;15.482;2023-05-07T12:30:55;3.10;;;2.80;;
7495;SDS011;3789;47.064;15.482;2023-05-07T12:33:27;3.20;;;2.90;;
7495;SDS011;3789;47.064;15.482;2023-05-07T12:36:39;4.55;;;3.55;;
7495;SDS011;3789;47.064;15.482;2023-05-07T12:39:09;3.42;;;3.13;;
7495;SDS011;3789;47.064;15.482;2023-05-07T12:41:57;4.07;;;2.63;;
7495;SDS011;3789;47.064;15.482;2023-05-07T12:44:31;3.17;;;2.97;;
7495;SDS011;3789;47.064;15.482;2023-05-07T12:47:04;3.10;;;2.83;;
7495;SDS011;3789;47.064;15.482;2023-05-07T12:49:35;3.28;;;3.08;;
7495;SDS011;3789;47.064;15.482;2023-05-07T12:52:05;3.35;;;3.05;;
7495;SDS011;3789;47.064;15.482;2023-05-07T12:54:37;3.13;;;2.83;;
7495;SDS011;3789;47.064;15.482;2023-05-07T12:57:09;3.75;;;3.05;;
7495;SDS011;3789;47.064;15.482;2023-05-07T12:59:41;3.63;;;3.33;;
7495;SDS011;3789;47.064;15.482;2023-05-07T13:02:12;3.60;;;3.30;;
7495;SDS011;3789;47.064;15.482;2023-05-07T13:04:42;3.35;;;3.15;;
7495;SDS011;3789;47.064;15.482;2023-05-07T13:07:12;3.70;;;3.40;;
7495;SDS011;3789;47.064;15.482;2023-05-07T13:09:41;4.15;;;3.70;;
7495;SDS011;3789;47.064;15.482;2023-05-07T13:12:13;3.33;;;3.03;;
7495;SDS011;3789;47.064;15.482;2023-05-07T13:14:43;3.70;;;3.40;;
7495;SDS011;3789;47.064;15.482;2023-05-07T13:17:11;3.95;;;3.55;;
7495;SDS011;3789;47.064;15.482;2023-05-07T13:19:41;3.47;;;3.17;;
7495;SDS011;3789;47.064;15.482;2023-05-07T13:22:10;4.20;;;3.80;;
7495;SDS011;3789;47.064;15.482;2023-05-07T13:24:39;4.60;;;3.70;;
7495;SDS011;3789;47.064;15.482;2023-05-07T13:27:21;4.55;;;4.15;;
7495;SDS011;3789;47.064;15.482;2023-05-07T13:29:48;5.45;;;4.57;;
7495;SDS011;3789;47.064;15.482;2023-05-07T13:32:17;7.30;;;5.47;;
7495;SDS011;3789;47.064;15.482;2023-05-07T13:34:53;5.65;;;5.15;;
7495;SDS011;3789;47.064;15.482;2023-05-07T13:37:23;6.93;;;6.22;;
7495;SDS011;3789;47.064;15.482;2023-05-07T13:39:58;7.80;;;6.77;;
7495;SDS011;3789;47.064;15.482;2023-05-07T13:42:29;8.10;;;7.40;;
7495;SDS011;3789;47.064;15.482;2023-05-07T13:45:01;10.00;;;8.30;;
7495;SDS011;3789;47.064;15.482;2023-05-07T13:47:33;9.57;;;8.67;;
7495;SDS011;3789;47.064;15.482;2023-05-07T13:50:07;11.10;;;10.00;;
7495;SDS011;3789;47.064;15.482;2023-05-07T13:52:38;10.93;;;9.83;;
7495;SDS011;3789;47.064;15.482;2023-05-07T13:55:22;13.73;;;11.17;;
7495;SDS011;3789;47.064;15.482;2023-05-07T13:58:01;12.47;;;11.37;;
7495;SDS011;3789;47.064;15.482;2023-05-07T14:00:34;12.13;;;11.03;;
7495;SDS011;3789;47.064;15.482;2023-05-07T14:03:10;12.77;;;11.47;;
7495;SDS011;3789;47.064;15.482;2023-05-07T14:05:40;12.63;;;11.33;;
7495;SDS011;3789;47.064;15.482;2023-05-07T14:08:11;12.33;;;11.17;;
7495;SDS011;3789;47.064;15.482;2023-05-07T14:10:43;13.43;;;12.13;;
7495;SDS011;3789;47.064;15.482;2023-05-07T14:13:13;14.13;;;12.73;;
7495;SDS011;3789;47.064;15.482;2023-05-07T14:15:46;14.53;;;13.20;;
7495;SDS011;3789;47.064;15.482;2023-05-07T14:18:18;15.63;;;13.93;;
7495;SDS011;3789;47.064;15.482;2023-05-07T14:20:50;15.07;;;13.57;;
7495;SDS011;3789;47.064;15.482;2023-05-07T14:23:33;15.17;;;13.60;;
7495;SDS011;3789;47.064;15.482;2023-05-07T14:26:01;16.10;;;14.50;;
7495;SDS011;3789;47.064;15.482;2023-05-07T14:28:32;14.63;;;13.10;;
7495;SDS011;3789;47.064;15.482;2023-05-07T14:31:00;13.67;;;12.33;;
7495;SDS011;3789;47.064;15.482;2023-05-07T14:33:31;14.30;;;11.23;;
7495;SDS011;3789;47.064;15.482;2023-05-07T14:36:08;13.37;;;12.03;;
7495;SDS011;3789;47.064;15.482;2023-05-07T14:38:46;12.47;;;11.00;;
7495;SDS011;3789;47.064;15.482;2023-05-07T14:41:16;12.90;;;11.70;;
7495;SDS011;3789;47.064;15.482;2023-05-07T14:43:43;11.83;;;10.67;;
7495;SDS011;3789;47.064;15.482;2023-05-07T14:46:22;11.37;;;10.27;;
7495;SDS011;3789;47.064;15.482;2023-05-07T14:48:53;12.83;;;11.53;;
7495;SDS011;3789;47.064;15.482;2023-05-07T14:51:22;11.97;;;10.73;;
7495;SDS011;3789;47.064;15.482;2023-05-07T14:53:51;12.57;;;11.37;;
7495;SDS011;3789;47.064;15.482;2023-05-07T14:56:20;13.47;;;12.17;;
7495;SDS011;3789;47.064;15.482;2023-05-07T14:58:52;14.37;;;12.77;;
7495;SDS011;3789;47.064;15.482;2023-05-07T15:01:31;14.53;;;13.07;;
7495;SDS011;3789;47.064;15.482;2023-05-07T15:04:00;14.00;;;12.70;;
7495;SDS011;3789;47.064;15.482;2023-05-07T15:06:33;15.37;;;13.83;;
7495;SDS011;3789;47.064;15.482;2023-05-07T15:09:03;14.77;;;13.27;;
7495;SDS011;3789;47.064;15.482;2023-05-07T15:11:31;14.50;;;13.10;;
7495;SDS011;3789;47.064;15.482;2023-05-07T15:14:02;15.53;;;13.93;;
7495;SDS011;3789;47.064;15.482;2023-05-07T15:16:38;15.37;;;13.83;;
7495;SDS011;3789;47.064;15.482;2023-05-07T15:19:08;15.13;;;13.63;;
7495;SDS011;3789;47.064;15.482;2023-05-07T15:21:46;14.93;;;13.20;;
7495;SDS011;3789;47.064;15.482;2023-05-07T15:24:18;15.83;;;13.10;;
7495;SDS011;3789;47.064;15.482;2023-05-07T15:26:48;15.03;;;13.63;;
7495;SDS011;3789;47.064;15.482;2023-05-07T15:29:24;14.87;;;13.37;;
7495;SDS011;3789;47.064;15.482;2023-05-07T15:31:55;14.20;;;12.73;;
7495;SDS011;3789;47.064;15.482;2023-05-07T15:34:24;15.87;;;14.27;;
7495;SDS011;3789;47.064;15.482;2023-05-07T15:36:59;15.23;;;13.73;;
7495;SDS011;3789;47.064;15.482;2023-05-07T15:39:26;15.30;;;13.90;;
7495;SDS011;3789;47.064;15.482;2023-05-07T15:41:57;16.03;;;14.40;;
7495;SDS011;3789;47.064;15.482;2023-05-07T15:44:26;14.40;;;12.90;;